sensor_id;sensor_type;location;lat;lon;timestamp;pressure;altitude;pressure_sealevel;temperature;humidity
43691;BME280;29293;52.190;21.226;2023-06-04T00:14:47;101080.63;;;5.03;100.00
43691;BME280;29293;52.190;21.226;2023-06-04T00:29:54;101072.04;;;5.00;100.00
43691;BME280;29293;52.190;21.226;2023-06-04T00:45:02;101069.36;;;4.98;100.00
43691;BME280;29293;52.190;21.226;2023-06-04T01:00:10;101064.30;;;5.00;100.00
43691;BME280;29293;52.190;21.226;2023-06-04T01:15:16;101058.52;;;5.03;100.00
43691;BME280;29293;52.190;21.226;2023-06-04T01:30:25;101054.79;;;5.03;100.00
43691;BME280;29293;52.190;21.226;2023-06-04T01:45:33;101060.02;;;5.00;100.00
43691;BME280;29293;52.190;21.226;2023-06-04T02:00:40;101055.48;;;4.94;100.00
43691;BME280;29293;52.190;21.226;2023-06-04T02:15:48;101050.04;;;4.84;100.00
43691;BME280;29293;52.190;21.226;2023-06-04T02:30:55;101045.03;;;4.75;100.00
43691;BME280;29293;52.190;21.226;2023-06-04T02:46:01;101047.18;;;4.70;100.00
43691;BME280;29293;52.190;21.226;2023-06-04T03:01:12;101045.22;;;4.77;100.00
43691;BME280;29293;52.190;21.226;2023-06-04T03:16:23;101050.60;;;4.88;100.00
43691;BME280;29293;52.190;21.226;2023-06-04T03:31:30;101053.75;;;5.04;100.00
43691;BME280;29293;52.190;21.226;2023-06-04T03:46:37;101046.84;;;5.36;100.00
43691;BME280;29293;52.190;21.226;2023-06-04T04:01:44;101053.65;;;5.90;100.00
43691;BME280;29293;52.190;21.226;2023-06-04T04:16:51;101052.33;;;6.64;100.00
43691;BME280;29293;52.190;21.226;2023-06-04T04:31:58;101044.64;;;7.50;100.00
43691;BME280;29293;52.190;21.226;2023-06-04T04:47:06;101045.54;;;8.37;100.00
43691;BME280;29293;52.190;21.226;2023-06-04T05:02:12;101045.89;;;9.07;100.00
43691;BME280;29293;52.190;21.226;2023-06-04T05:17:19;101041.30;;;9.73;100.00
43691;BME280;29293;52.190;21.226;2023-06-04T05:32:35;101044.92;;;10.21;100.00
43691;BME280;29293;52.190;21.226;2023-06-04T05:47:46;101038.23;;;10.95;100.00
43691;BME280;29293;52.190;21.226;2023-06-04T06:02:53;101029.09;;;11.67;100.00
43691;BME280;29293;52.190;21.226;2023-06-04T06:18:00;101045.31;;;12.37;100.00
43691;BME280;29293;52.190;21.226;2023-06-04T06:33:07;101045.48;;;13.04;88.14
43691;BME280;29293;52.190;21.226;2023-06-04T06:48:14;101042.86;;;14.14;74.04
43691;BME280;29293;52.190;21.226;2023-06-04T07:03:21;101049.05;;;16.13;59.40
43691;BME280;29293;52.190;21.226;2023-06-04T07:18:28;101053.01;;;17.33;51.25
43691;BME280;29293;52.190;21.226;2023-06-04T07:33:35;101055.52;;;17.56;45.28
43691;BME280;29293;52.190;21.226;2023-06-04T07:48:48;101053.58;;;17.97;44.43
43691;BME280;29293;52.190;21.226;2023-06-04T08:03:54;101054.56;;;18.09;43.51
43691;BME280;29293;52.190;21.226;2023-06-04T08:19:01;101050.57;;;18.51;42.39
43691;BME280;29293;52.190;21.226;2023-06-04T08:34:08;101044.58;;;18.67;40.21
43691;BME280;29293;52.190;21.226;2023-06-04T08:49:15;101032.70;;;18.75;39.76
43691;BME280;29293;52.190;21.226;2023-06-04T09:04:23;101032.03;;;19.09;38.50
43691;BME280;29293;52.190;21.226;2023-06-04T09:19:30;101027.42;;;19.18;37.65
43691;BME280;29293;52.190;21.226;2023-06-04T09:34:37;101011.52;;;19.65;37.73
43691;BME280;29293;52.190;21.226;2023-06-04T09:49:50;101009.67;;;20.01;37.54
43691;BME280;29293;52.190;21.226;2023-06-04T10:04:59;101002.46;;;20.37;36.94
43691;BME280;29293;52.190;21.226;2023-06-04T10:20:08;100993.64;;;20.49;36.52
43691;BME280;29293;52.190;21.226;2023-06-04T10:35:16;100982.39;;;20.92;35.20
43691;BME280;29293;52.190;21.226;2023-06-04T10:50:24;100976.15;;;21.35;34.27
43691;BME280;29293;52.190;21.226;2023-06-04T11:05:36;100963.31;;;21.25;32.56
43691;BME280;29293;52.190;21.226;2023-06-04T11:20:43;100955.38;;;21.47;32.73
43691;BME280;29293;52.190;21.226;2023-06-04T11:35:50;100958.92;;;21.69;32.95
43691;BME280;29293;52.190;21.226;2023-06-04T11:50:57;100950.09;;;21.57;32.48
43691;BME280;29293;52.190;21.226;2023-06-04T12:06:12;100941.70;;;22.13;32.34
43691;BME280;29293;52.190;21.226;2023-06-04T12:21:22;100937.54;;;22.09;31.95
43691;BME280;29293;52.190;21.226;2023-06-04T12:36:32;100945.15;;;20.76;32.83
43691;BME280;29293;52.190;21.226;2023-06-04T12:51:40;100934.83;;;21.67;32.51
43691;BME280;29293;52.190;21.226;2023-06-04T13:06:47;100930.82;;;22.61;31.99
43691;BME280;29293;52.190;21.226;2023-06-04T13:21:54;100924.67;;;23.48;31.09
43691;BME280;29293;52.190;21.226;2023-06-04T13:37:02;100920.59;;;24.04;28.96
43691;BME280;29293;52.190;21.226;2023-06-04T13:52:10;100910.44;;;24.07;28.51
43691;BME280;29293;52.190;21.226;2023-06-04T14:07:16;100902.44;;;23.93;29.53
43691;BME280;29293;52.190;21.226;2023-06-04T14:22:23;100898.55;;;23.18;29.61
43691;BME280;29293;52.190;21.226;2023-06-04T14:37:40;100894.92;;;22.64;29.82
43691;BME280;29293;52.190;21.226;2023-06-04T14:52:47;100887.44;;;22.45;30.28
43691;BME280;29293;52.190;21.226;2023-06-04T15:07:54;100884.63;;;22.28;29.73
43691;BME280;29293;52.190;21.226;2023-06-04T15:23:01;100881.02;;;21.85;30.87
43691;BME280;29293;52.190;21.226;2023-06-04T15:49:08;100873.20;;;21.02;31.52
43691;BME280;29293;52.190;21.226;2023-06-04T16:14:02;100863.42;;;20.56;32.62
43691;BME280;29293;52.190;21.226;2023-06-04T16:29:09;100861.86;;;20.28;33.18
43691;BME280;29293;52.190;21.226;2023-06-04T16:44:18;100870.73;;;19.94;33.81
43691;BME280;29293;52.190;21.226;2023-06-04T16:59:25;100868.67;;;19.64;33.39
43691;BME280;29293;52.190;21.226;2023-06-04T17:14:33;100868.48;;;19.43;33.58
43691;BME280;29293;52.190;21.226;2023-06-04T17:29:43;100872.83;;;19.05;34.58
43691;BME280;29293;52.190;21.226;2023-06-04T17:44:49;100877.44;;;18.53;36.43
43691;BME280;29293;52.190;21.226;2023-06-04T18:15:49;100882.92;;;17.20;41.00
43691;BME280;29293;52.190;21.226;2023-06-04T19:06:27;100919.47;;;15.17;47.68
43691;BME280;29293;52.190;21.226;2023-06-04T19:21:34;100936.40;;;13.96;55.48
43691;BME280;29293;52.190;21.226;2023-06-04T19:36:42;100950.06;;;13.20;59.69
43691;BME280;29293;52.190;21.226;2023-06-04T19:51:49;100956.26;;;12.72;59.28
43691;BME280;29293;52.190;21.226;2023-06-04T20:07:03;100964.60;;;12.22;61.08
43691;BME280;29293;52.190;21.226;2023-06-04T20:22:11;100975.63;;;11.79;63.93
43691;BME280;29293;52.190;21.226;2023-06-04T20:37:20;100976.56;;;11.35;65.32
43691;BME280;29293;52.190;21.226;2023-06-04T20:52:27;100977.50;;;10.96;67.77
43691;BME280;29293;52.190;21.226;2023-06-04T21:07:34;100980.56;;;10.63;69.87
43691;BME280;29293;52.190;21.226;2023-06-04T21:22:41;100986.42;;;10.36;72.19
43691;BME280;29293;52.190;21.226;2023-06-04T21:37:48;100989.64;;;10.08;75.42
43691;BME280;29293;52.190;21.226;2023-06-04T21:52:55;100998.13;;;9.78;78.22
43691;BME280;29293;52.190;21.226;2023-06-04T22:08:02;101002.64;;;9.48;81.72
43691;BME280;29293;52.190;21.226;2023-06-04T22:23:09;101016.36;;;9.26;86.95
43691;BME280;29293;52.190;21.226;2023-06-04T22:38:16;101018.55;;;9.11;91.59
43691;BME280;29293;52.190;21.226;2023-06-04T22:53:22;101022.48;;;9.04;97.44
43691;BME280;29293;52.190;21.226;2023-06-04T23:08:31;101022.88;;;8.95;100.00
43691;BME280;29293;52.190;21.226;2023-06-04T23:23:37;101023.63;;;8.85;100.00
43691;BME280;29293;52.190;21.226;2023-06-04T23:38:44;101026.84;;;8.69;100.00
43691;BME280;29293;52.190;21.226;2023-06-04T23:53:52;101038.48;;;8.51;100.00
